sensor_id;sensor_type;location;lat;lon;timestamp;P1;durP1;ratioP1;P2;durP2;ratioP2
24305;SDS011;12423;48.768;8.850;2023-04-01T00:01:12;1.45;;;0.30;;
24305;SDS011;12423;48.768;8.850;2023-04-01T00:03:17;0.80;;;0.40;;
24305;SDS011;12423;48.768;8.850;2023-04-01T00:05:19;0.65;;;0.22;;
24305;SDS011;12423;48.768;8.850;2023-04-01T00:07:20;3.40;;;0.40;;
24305;SDS011;12423;48.768;8.850;2023-04-01T00:09:21;2.15;;;0.73;;
24305;SDS011;12423;48.768;8.850;2023-04-01T00:11:22;0.80;;;0.50;;
24305;SDS011;12423;48.768;8.850;2023-04-01T00:13:24;2.17;;;0.63;;
24305;SDS011;12423;48.768;8.850;2023-04-01T00:15:26;2.22;;;0.88;;
24305;SDS011;12423;48.768;8.850;2023-04-01T00:17:27;4.38;;;0.40;;
24305;SDS011;12423;48.768;8.850;2023-04-01T00:19:28;1.90;;;0.57;;
24305;SDS011;12423;48.768;8.850;2023-04-01T00:21:30;2.63;;;0.50;;
24305;SDS011;12423;48.768;8.850;2023-04-01T00:23:31;1.73;;;0.45;;
24305;SDS011;12423;48.768;8.850;2023-04-01T00:25:32;1.25;;;0.30;;
24305;SDS011;12423;48.768;8.850;2023-04-01T00:27:33;1.00;;;0.50;;
24305;SDS011;12423;48.768;8.850;2023-04-01T00:29:34;3.08;;;0.57;;
24305;SDS011;12423;48.768;8.850;2023-04-01T00:31:35;4.00;;;0.60;;
24305;SDS011;12423;48.768;8.850;2023-04-01T00:33:36;1.52;;;0.40;;
24305;SDS011;12423;48.768;8.850;2023-04-01T00:35:38;1.15;;;0.50;;
24305;SDS011;12423;48.768;8.850;2023-04-01T00:37:39;5.25;;;0.70;;
24305;SDS011;12423;48.768;8.850;2023-04-01T00:39:40;1.88;;;0.50;;
24305;SDS011;12423;48.768;8.850;2023-04-01T00:41:41;1.92;;;0.50;;
24305;SDS011;12423;48.768;8.850;2023-04-01T00:43:43;2.88;;;0.50;;
24305;SDS011;12423;48.768;8.850;2023-04-01T00:45:47;3.08;;;0.60;;
24305;SDS011;12423;48.768;8.850;2023-04-01T00:47:48;2.10;;;0.55;;
24305;SDS011;12423;48.768;8.850;2023-04-01T00:49:50;2.83;;;0.50;;
24305;SDS011;12423;48.768;8.850;2023-04-01T00:51:53;2.00;;;0.30;;
24305;SDS011;12423;48.768;8.850;2023-04-01T00:53:57;6.03;;;0.70;;
24305;SDS011;12423;48.768;8.850;2023-04-01T00:56:03;3.50;;;0.63;;
24305;SDS011;12423;48.768;8.850;2023-04-01T00:58:08;3.37;;;0.40;;
24305;SDS011;12423;48.768;8.850;2023-04-01T01:00:15;3.33;;;0.50;;
24305;SDS011;12423;48.768;8.850;2023-04-01T01:02:18;2.40;;;0.40;;
24305;SDS011;12423;48.768;8.850;2023-04-01T01:04:23;1.92;;;0.32;;
24305;SDS011;12423;48.768;8.850;2023-04-01T01:06:30;3.40;;;0.77;;
24305;SDS011;12423;48.768;8.850;2023-04-01T01:09:03;3.03;;;0.55;;
24305;SDS011;12423;48.768;8.850;2023-04-01T01:11:08;1.20;;;0.32;;
24305;SDS011;12423;48.768;8.850;2023-04-01T01:15:46;3.42;;;0.30;;
24305;SDS011;12423;48.768;8.850;2023-04-01T01:18:03;3.88;;;0.82;;
24305;SDS011;12423;48.768;8.850;2023-04-01T01:25:14;1.55;;;0.38;;
24305;SDS011;12423;48.768;8.850;2023-04-01T01:27:17;0.45;;;0.10;;
24305;SDS011;12423;48.768;8.850;2023-04-01T01:31:51;3.53;;;0.57;;
24305;SDS011;12423;48.768;8.850;2023-04-01T01:36:09;1.45;;;0.40;;
24305;SDS011;12423;48.768;8.850;2023-04-01T01:38:15;1.88;;;0.30;;
24305;SDS011;12423;48.768;8.850;2023-04-01T01:40:26;4.30;;;0.55;;
24305;SDS011;12423;48.768;8.850;2023-04-01T01:42:28;1.38;;;0.30;;
24305;SDS011;12423;48.768;8.850;2023-04-01T01:44:32;2.40;;;0.50;;
24305;SDS011;12423;48.768;8.850;2023-04-01T01:46:35;2.28;;;0.43;;
24305;SDS011;12423;48.768;8.850;2023-04-01T01:48:38;1.73;;;0.32;;
24305;SDS011;12423;48.768;8.850;2023-04-01T01:50:43;1.02;;;0.20;;
24305;SDS011;12423;48.768;8.850;2023-04-01T01:52:46;1.77;;;0.50;;
24305;SDS011;12423;48.768;8.850;2023-04-01T01:54:52;1.17;;;0.38;;
24305;SDS011;12423;48.768;8.850;2023-04-01T01:56:57;0.98;;;0.30;;
24305;SDS011;12423;48.768;8.850;2023-04-01T01:59:10;0.90;;;0.20;;
24305;SDS011;12423;48.768;8.850;2023-04-01T02:01:16;0.68;;;0.28;;
24305;SDS011;12423;48.768;8.850;2023-04-01T02:03:21;0.35;;;0.20;;
24305;SDS011;12423;48.768;8.850;2023-04-01T02:05:26;2.83;;;0.43;;
24305;SDS011;12423;48.768;8.850;2023-04-01T02:07:36;1.58;;;0.30;;
24305;SDS011;12423;48.768;8.850;2023-04-01T02:09:40;4.03;;;0.57;;
24305;SDS011;12423;48.768;8.850;2023-04-01T02:13:52;0.55;;;0.20;;
24305;SDS011;12423;48.768;8.850;2023-04-01T02:15:58;2.58;;;0.30;;
24305;SDS011;12423;48.768;8.850;2023-04-01T02:18:02;2.15;;;0.40;;
24305;SDS011;12423;48.768;8.850;2023-04-01T02:22:13;2.40;;;0.30;;
24305;SDS011;12423;48.768;8.850;2023-04-01T02:24:20;1.08;;;0.45;;
24305;SDS011;12423;48.768;8.850;2023-04-01T02:26:25;1.00;;;0.25;;
24305;SDS011;12423;48.768;8.850;2023-04-01T02:28:27;0.75;;;0.40;;
24305;SDS011;12423;48.768;8.850;2023-04-01T02:30:30;1.35;;;0.25;;
24305;SDS011;12423;48.768;8.850;2023-04-01T02:32:34;2.45;;;0.30;;
24305;SDS011;12423;48.768;8.850;2023-04-01T02:34:38;0.57;;;0.30;;
24305;SDS011;12423;48.768;8.850;2023-04-01T02:36:40;1.30;;;0.40;;
24305;SDS011;12423;48.768;8.850;2023-04-01T02:38:42;0.52;;;0.28;;
24305;SDS011;12423;48.768;8.850;2023-04-01T02:40:49;1.20;;;0.25;;
24305;SDS011;12423;48.768;8.850;2023-04-01T02:42:51;0.10;;;0.10;;
24305;SDS011;12423;48.768;8.850;2023-04-01T02:44:52;0.98;;;0.30;;
24305;SDS011;12423;48.768;8.850;2023-04-01T02:46:54;2.85;;;0.38;;
24305;SDS011;12423;48.768;8.850;2023-04-01T02:48:55;0.43;;;0.20;;
24305;SDS011;12423;48.768;8.850;2023-04-01T02:50:56;1.25;;;0.20;;
24305;SDS011;12423;48.768;8.850;2023-04-01T02:52:57;2.78;;;0.40;;
24305;SDS011;12423;48.768;8.850;2023-04-01T02:54:58;1.55;;;0.32;;
24305;SDS011;12423;48.768;8.850;2023-04-01T02:56:59;0.98;;;0.30;;
24305;SDS011;12423;48.768;8.850;2023-04-01T02:59:00;2.08;;;0.35;;
24305;SDS011;12423;48.768;8.850;2023-04-01T03:01:01;2.50;;;0.20;;
24305;SDS011;12423;48.768;8.850;2023-04-01T03:03:02;2.10;;;0.25;;
24305;SDS011;12423;48.768;8.850;2023-04-01T03:05:03;4.22;;;0.50;;
24305;SDS011;12423;48.768;8.850;2023-04-01T03:07:06;2.67;;;0.38;;
24305;SDS011;12423;48.768;8.850;2023-04-01T03:09:07;2.13;;;0.40;;
24305;SDS011;12423;48.768;8.850;2023-04-01T03:11:08;3.60;;;0.40;;
24305;SDS011;12423;48.768;8.850;2023-04-01T03:13:11;2.03;;;0.30;;
24305;SDS011;12423;48.768;8.850;2023-04-01T03:15:12;1.98;;;0.30;;
24305;SDS011;12423;48.768;8.850;2023-04-01T03:17:15;1.25;;;0.30;;
24305;SDS011;12423;48.768;8.850;2023-04-01T03:19:16;2.28;;;0.50;;
24305;SDS011;12423;48.768;8.850;2023-04-01T03:21:17;3.03;;;0.35;;
24305;SDS011;12423;48.768;8.850;2023-04-01T03:23:20;1.55;;;0.35;;
24305;SDS011;12423;48.768;8.850;2023-04-01T03:25:21;0.50;;;0.20;;
24305;SDS011;12423;48.768;8.850;2023-04-01T03:27:22;2.65;;;0.35;;
24305;SDS011;12423;48.768;8.850;2023-04-01T03:29:24;4.03;;;0.60;;
24305;SDS011;12423;48.768;8.850;2023-04-01T03:31:25;1.17;;;0.20;;
24305;SDS011;12423;48.768;8.850;2023-04-01T03:33:29;2.20;;;0.30;;
24305;SDS011;12423;48.768;8.850;2023-04-01T03:35:30;4.65;;;0.50;;
24305;SDS011;12423;48.768;8.850;2023-04-01T03:37:31;1.02;;;0.25;;
24305;SDS011;12423;48.768;8.850;2023-04-01T03:39:32;0.50;;;0.20;;
24305;SDS011;12423;48.768;8.850;2023-04-01T03:41:35;0.30;;;0.20;;
24305;SDS011;12423;48.768;8.850;2023-04-01T03:43:37;2.72;;;0.38;;
24305;SDS011;12423;48.768;8.850;2023-04-01T03:45:45;0.43;;;0.20;;
24305;SDS011;12423;48.768;8.850;2023-04-01T03:47:50;0.45;;;0.17;;
24305;SDS011;12423;48.768;8.850;2023-04-01T03:49:52;1.80;;;0.20;;
24305;SDS011;12423;48.768;8.850;2023-04-01T03:51:53;0.70;;;0.20;;
24305;SDS011;12423;48.768;8.850;2023-04-01T03:53:54;0.80;;;0.28;;
24305;SDS011;12423;48.768;8.850;2023-04-01T03:55:54;0.38;;;0.22;;
24305;SDS011;12423;48.768;8.850;2023-04-01T03:57:56;0.95;;;0.30;;
24305;SDS011;12423;48.768;8.850;2023-04-01T03:59:57;1.27;;;0.30;;
24305;SDS011;12423;48.768;8.850;2023-04-01T04:01:58;1.42;;;0.40;;
24305;SDS011;12423;48.768;8.850;2023-04-01T04:03:59;1.75;;;0.30;;
24305;SDS011;12423;48.768;8.850;2023-04-01T04:06:01;1.58;;;0.40;;
24305;SDS011;12423;48.768;8.850;2023-04-01T04:08:02;1.98;;;0.32;;
24305;SDS011;12423;48.768;8.850;2023-04-01T04:10:04;0.80;;;0.28;;
24305;SDS011;12423;48.768;8.850;2023-04-01T04:12:06;1.17;;;0.20;;
24305;SDS011;12423;48.768;8.850;2023-04-01T04:14:07;0.52;;;0.10;;
24305;SDS011;12423;48.768;8.850;2023-04-01T04:16:08;3.47;;;0.20;;
24305;SDS011;12423;48.768;8.850;2023-04-01T04:18:13;0.68;;;0.30;;
24305;SDS011;12423;48.768;8.850;2023-04-01T04:20:14;1.92;;;0.40;;
24305;SDS011;12423;48.768;8.850;2023-04-01T04:22:15;1.17;;;0.30;;
24305;SDS011;12423;48.768;8.850;2023-04-01T04:24:16;1.52;;;0.40;;
24305;SDS011;12423;48.768;8.850;2023-04-01T04:26:33;0.60;;;0.30;;
24305;SDS011;12423;48.768;8.850;2023-04-01T04:28:35;3.50;;;0.30;;
24305;SDS011;12423;48.768;8.850;2023-04-01T04:30:36;0.82;;;0.17;;
24305;SDS011;12423;48.768;8.850;2023-04-01T04:32:37;1.80;;;0.52;;
24305;SDS011;12423;48.768;8.850;2023-04-01T04:34:39;1.73;;;0.40;;
24305;SDS011;12423;48.768;8.850;2023-04-01T04:36:40;1.75;;;0.45;;
24305;SDS011;12423;48.768;8.850;2023-04-01T04:38:41;1.27;;;0.40;;
24305;SDS011;12423;48.768;8.850;2023-04-01T04:40:42;3.13;;;0.32;;
24305;SDS011;12423;48.768;8.850;2023-04-01T04:42:45;2.92;;;0.45;;
24305;SDS011;12423;48.768;8.850;2023-04-01T04:44:49;3.13;;;0.30;;
24305;SDS011;12423;48.768;8.850;2023-04-01T04:46:50;0.20;;;0.20;;
24305;SDS011;12423;48.768;8.850;2023-04-01T04:48:51;0.77;;;0.30;;
24305;SDS011;12423;48.768;8.850;2023-04-01T04:50:52;1.83;;;0.40;;
24305;SDS011;12423;48.768;8.850;2023-04-01T04:52:57;1.23;;;0.32;;
24305;SDS011;12423;48.768;8.850;2023-04-01T04:54:58;1.02;;;0.30;;
24305;SDS011;12423;48.768;8.850;2023-04-01T04:56:59;0.22;;;0.20;;
24305;SDS011;12423;48.768;8.850;2023-04-01T04:59:02;1.13;;;0.20;;
24305;SDS011;12423;48.768;8.850;2023-04-01T05:01:15;5.28;;;0.40;;
24305;SDS011;12423;48.768;8.850;2023-04-01T05:03:18;0.70;;;0.30;;
24305;SDS011;12423;48.768;8.850;2023-04-01T05:05:19;1.45;;;0.50;;
24305;SDS011;12423;48.768;8.850;2023-04-01T05:07:20;2.58;;;0.40;;
24305;SDS011;12423;48.768;8.850;2023-04-01T05:09:22;0.90;;;0.30;;
24305;SDS011;12423;48.768;8.850;2023-04-01T05:11:22;1.33;;;0.40;;
24305;SDS011;12423;48.768;8.850;2023-04-01T05:13:25;2.15;;;0.30;;
24305;SDS011;12423;48.768;8.850;2023-04-01T05:15:26;4.45;;;0.50;;
24305;SDS011;12423;48.768;8.850;2023-04-01T05:17:29;0.82;;;0.50;;
24305;SDS011;12423;48.768;8.850;2023-04-01T05:19:31;1.50;;;0.35;;
24305;SDS011;12423;48.768;8.850;2023-04-01T05:21:32;1.67;;;0.52;;
24305;SDS011;12423;48.768;8.850;2023-04-01T05:23:33;3.28;;;0.80;;
24305;SDS011;12423;48.768;8.850;2023-04-01T05:25:37;1.67;;;0.28;;
24305;SDS011;12423;48.768;8.850;2023-04-01T05:27:38;4.88;;;0.40;;
24305;SDS011;12423;48.768;8.850;2023-04-01T05:29:39;3.17;;;0.50;;
24305;SDS011;12423;48.768;8.850;2023-04-01T05:31:43;3.30;;;0.63;;
24305;SDS011;12423;48.768;8.850;2023-04-01T05:33:44;2.80;;;0.35;;
24305;SDS011;12423;48.768;8.850;2023-04-01T05:35:45;1.35;;;0.47;;
24305;SDS011;12423;48.768;8.850;2023-04-01T05:37:47;3.80;;;0.47;;
24305;SDS011;12423;48.768;8.850;2023-04-01T05:39:48;2.08;;;0.73;;
24305;SDS011;12423;48.768;8.850;2023-04-01T05:41:49;1.65;;;0.32;;
24305;SDS011;12423;48.768;8.850;2023-04-01T05:43:50;2.72;;;0.40;;
24305;SDS011;12423;48.768;8.850;2023-04-01T05:46:26;1.52;;;0.50;;
24305;SDS011;12423;48.768;8.850;2023-04-01T05:48:47;0.52;;;0.20;;
24305;SDS011;12423;48.768;8.850;2023-04-01T05:50:49;1.67;;;0.50;;
24305;SDS011;12423;48.768;8.850;2023-04-01T05:52:50;1.30;;;0.25;;
24305;SDS011;12423;48.768;8.850;2023-04-01T05:54:51;1.30;;;0.20;;
24305;SDS011;12423;48.768;8.850;2023-04-01T05:56:52;2.65;;;0.40;;
24305;SDS011;12423;48.768;8.850;2023-04-01T05:58:54;0.98;;;0.25;;
24305;SDS011;12423;48.768;8.850;2023-04-01T06:01:07;2.17;;;0.47;;
24305;SDS011;12423;48.768;8.850;2023-04-01T06:03:10;1.55;;;0.40;;
24305;SDS011;12423;48.768;8.850;2023-04-01T06:05:21;1.70;;;0.40;;
24305;SDS011;12423;48.768;8.850;2023-04-01T06:07:24;2.92;;;0.30;;
24305;SDS011;12423;48.768;8.850;2023-04-01T06:09:29;0.38;;;0.20;;
24305;SDS011;12423;48.768;8.850;2023-04-01T06:14:05;3.63;;;0.60;;
24305;SDS011;12423;48.768;8.850;2023-04-01T06:16:35;4.07;;;0.60;;
24305;SDS011;12423;48.768;8.850;2023-04-01T06:23:47;1.40;;;0.40;;
24305;SDS011;12423;48.768;8.850;2023-04-01T06:25:54;1.98;;;0.35;;
24305;SDS011;12423;48.768;8.850;2023-04-01T06:38:16;0.82;;;0.40;;
24305;SDS011;12423;48.768;8.850;2023-04-01T06:46:04;0.52;;;0.20;;
24305;SDS011;12423;48.768;8.850;2023-04-01T06:48:56;2.45;;;0.30;;
24305;SDS011;12423;48.768;8.850;2023-04-01T06:51:45;1.65;;;0.40;;
24305;SDS011;12423;48.768;8.850;2023-04-01T06:54:32;0.95;;;0.38;;
24305;SDS011;12423;48.768;8.850;2023-04-01T06:56:37;3.78;;;0.28;;
24305;SDS011;12423;48.768;8.850;2023-04-01T07:00:56;3.15;;;0.55;;
24305;SDS011;12423;48.768;8.850;2023-04-01T07:07:30;1.65;;;0.38;;
24305;SDS011;12423;48.768;8.850;2023-04-01T07:09:41;1.30;;;0.45;;
24305;SDS011;12423;48.768;8.850;2023-04-01T07:12:18;2.30;;;0.30;;
24305;SDS011;12423;48.768;8.850;2023-04-01T07:14:48;1.27;;;0.38;;
24305;SDS011;12423;48.768;8.850;2023-04-01T07:23:52;2.92;;;0.20;;
24305;SDS011;12423;48.768;8.850;2023-04-01T07:26:19;0.30;;;0.25;;
24305;SDS011;12423;48.768;8.850;2023-04-01T07:28:39;1.90;;;0.17;;
24305;SDS011;12423;48.768;8.850;2023-04-01T07:31:07;0.70;;;0.30;;
24305;SDS011;12423;48.768;8.850;2023-04-01T07:35:56;1.25;;;0.30;;
24305;SDS011;12423;48.768;8.850;2023-04-01T07:38:13;1.38;;;0.30;;
24305;SDS011;12423;48.768;8.850;2023-04-01T07:40:18;1.13;;;0.30;;
24305;SDS011;12423;48.768;8.850;2023-04-01T07:45:00;0.28;;;0.15;;
24305;SDS011;12423;48.768;8.850;2023-04-01T07:47:22;0.47;;;0.20;;
24305;SDS011;12423;48.768;8.850;2023-04-01T07:54:21;0.22;;;0.20;;
24305;SDS011;12423;48.768;8.850;2023-04-01T08:01:37;1.10;;;0.52;;
24305;SDS011;12423;48.768;8.850;2023-04-01T08:08:42;1.00;;;0.37;;
24305;SDS011;12423;48.768;8.850;2023-04-01T08:14:07;4.45;;;0.40;;
24305;SDS011;12423;48.768;8.850;2023-04-01T08:16:34;2.10;;;0.28;;
24305;SDS011;12423;48.768;8.850;2023-04-01T08:21:23;0.68;;;0.20;;
24305;SDS011;12423;48.768;8.850;2023-04-01T08:23:30;0.63;;;0.32;;
24305;SDS011;12423;48.768;8.850;2023-04-01T08:25:34;0.68;;;0.30;;
24305;SDS011;12423;48.768;8.850;2023-04-01T08:27:44;2.10;;;0.30;;
24305;SDS011;12423;48.768;8.850;2023-04-01T08:29:50;0.10;;;0.10;;
24305;SDS011;12423;48.768;8.850;2023-04-01T08:31:59;0.10;;;0.10;;
24305;SDS011;12423;48.768;8.850;2023-04-01T08:34:08;0.08;;;0.08;;
24305;SDS011;12423;48.768;8.850;2023-04-01T08:36:24;0.10;;;0.10;;
24305;SDS011;12423;48.768;8.850;2023-04-01T08:38:49;0.00;;;0.00;;
24305;SDS011;12423;48.768;8.850;2023-04-01T08:40:56;0.00;;;0.00;;
24305;SDS011;12423;48.768;8.850;2023-04-01T08:45:35;0.00;;;0.00;;
24305;SDS011;12423;48.768;8.850;2023-04-01T08:48:04;0.00;;;0.00;;
24305;SDS011;12423;48.768;8.850;2023-04-01T08:50:20;0.00;;;0.00;;
24305;SDS011;12423;48.768;8.850;2023-04-01T08:54:46;0.03;;;0.03;;
24305;SDS011;12423;48.768;8.850;2023-04-01T08:57:39;0.00;;;0.00;;
24305;SDS011;12423;48.768;8.850;2023-04-01T09:12:18;0.00;;;0.00;;
24305;SDS011;12423;48.768;8.850;2023-04-01T09:22:10;0.10;;;0.10;;
24305;SDS011;12423;48.768;8.850;2023-04-01T09:24:26;0.10;;;0.10;;
24305;SDS011;12423;48.768;8.850;2023-04-01T09:26:57;0.00;;;0.00;;
24305;SDS011;12423;48.768;8.850;2023-04-01T09:36:43;0.03;;;0.03;;
24305;SDS011;12423;48.768;8.850;2023-04-01T09:38:51;0.00;;;0.00;;
24305;SDS011;12423;48.768;8.850;2023-04-01T09:45:53;0.00;;;0.00;;
24305;SDS011;12423;48.768;8.850;2023-04-01T09:52:10;0.00;;;0.00;;
24305;SDS011;12423;48.768;8.850;2023-04-01T09:54:45;0.00;;;0.00;;
24305;SDS011;12423;48.768;8.850;2023-04-01T10:02:28;0.00;;;0.00;;
24305;SDS011;12423;48.768;8.850;2023-04-01T10:05:16;0.00;;;0.00;;
24305;SDS011;12423;48.768;8.850;2023-04-01T10:07:37;0.00;;;0.00;;
24305;SDS011;12423;48.768;8.850;2023-04-01T10:12:45;0.10;;;0.10;;
24305;SDS011;12423;48.768;8.850;2023-04-01T10:17:20;0.00;;;0.00;;
24305;SDS011;12423;48.768;8.850;2023-04-01T10:24:44;0.00;;;0.00;;
24305;SDS011;12423;48.768;8.850;2023-04-01T10:27:21;0.00;;;0.00;;
24305;SDS011;12423;48.768;8.850;2023-04-01T10:37:58;0.00;;;0.00;;
24305;SDS011;12423;48.768;8.850;2023-04-01T10:42:54;0.10;;;0.10;;
24305;SDS011;12423;48.768;8.850;2023-04-01T10:58:12;0.00;;;0.00;;
24305;SDS011;12423;48.768;8.850;2023-04-01T11:29:03;0.00;;;0.00;;
24305;SDS011;12423;48.768;8.850;2023-04-01T11:33:49;0.00;;;0.00;;
24305;SDS011;12423;48.768;8.850;2023-04-01T11:36:30;0.00;;;0.00;;
24305;SDS011;12423;48.768;8.850;2023-04-01T11:38:44;0.10;;;0.10;;
24305;SDS011;12423;48.768;8.850;2023-04-01T11:41:33;0.00;;;0.00;;
24305;SDS011;12423;48.768;8.850;2023-04-01T11:44:14;0.00;;;0.00;;
24305;SDS011;12423;48.768;8.850;2023-04-01T11:46:35;0.00;;;0.00;;
24305;SDS011;12423;48.768;8.850;2023-04-01T11:55:46;0.00;;;0.00;;
24305;SDS011;12423;48.768;8.850;2023-04-01T12:03:01;0.00;;;0.00;;
24305;SDS011;12423;48.768;8.850;2023-04-01T12:24:33;0.00;;;0.00;;
24305;SDS011;12423;48.768;8.850;2023-04-01T12:31:56;0.00;;;0.00;;
24305;SDS011;12423;48.768;8.850;2023-04-01T12:36:53;0.00;;;0.00;;
24305;SDS011;12423;48.768;8.850;2023-04-01T12:55:39;0.20;;;0.20;;
24305;SDS011;12423;48.768;8.850;2023-04-01T13:14:26;0.65;;;0.20;;
24305;SDS011;12423;48.768;8.850;2023-04-01T13:16:38;0.22;;;0.20;;
24305;SDS011;12423;48.768;8.850;2023-04-01T13:23:10;0.13;;;0.13;;
24305;SDS011;12423;48.768;8.850;2023-04-01T13:25:33;0.10;;;0.10;;
24305;SDS011;12423;48.768;8.850;2023-04-01T13:27:41;0.43;;;0.20;;
24305;SDS011;12423;48.768;8.850;2023-04-01T13:29:57;0.52;;;0.20;;
24305;SDS011;12423;48.768;8.850;2023-04-01T13:32:11;0.20;;;0.10;;
24305;SDS011;12423;48.768;8.850;2023-04-01T13:34:38;0.10;;;0.10;;
24305;SDS011;12423;48.768;8.850;2023-04-01T13:37:22;0.10;;;0.10;;
24305;SDS011;12423;48.768;8.850;2023-04-01T13:41:55;0.32;;;0.20;;
24305;SDS011;12423;48.768;8.850;2023-04-01T13:58:56;0.10;;;0.10;;
24305;SDS011;12423;48.768;8.850;2023-04-01T14:01:05;0.05;;;0.05;;
24305;SDS011;12423;48.768;8.850;2023-04-01T14:03:27;0.20;;;0.15;;
24305;SDS011;12423;48.768;8.850;2023-04-01T14:24:42;0.10;;;0.10;;
24305;SDS011;12423;48.768;8.850;2023-04-01T14:37:02;0.63;;;0.20;;
24305;SDS011;12423;48.768;8.850;2023-04-01T14:39:27;0.20;;;0.10;;
24305;SDS011;12423;48.768;8.850;2023-04-01T14:41:43;0.20;;;0.20;;
24305;SDS011;12423;48.768;8.850;2023-04-01T14:44:17;1.05;;;0.30;;
24305;SDS011;12423;48.768;8.850;2023-04-01T14:48:56;0.28;;;0.22;;
24305;SDS011;12423;48.768;8.850;2023-04-01T14:51:02;0.25;;;0.10;;
24305;SDS011;12423;48.768;8.850;2023-04-01T14:55:31;0.40;;;0.30;;
24305;SDS011;12423;48.768;8.850;2023-04-01T14:57:57;0.38;;;0.20;;
24305;SDS011;12423;48.768;8.850;2023-04-01T15:00:14;0.65;;;0.25;;
24305;SDS011;12423;48.768;8.850;2023-04-01T15:02:26;0.20;;;0.20;;
24305;SDS011;12423;48.768;8.850;2023-04-01T15:07:17;0.77;;;0.20;;
24305;SDS011;12423;48.768;8.850;2023-04-01T15:09:45;0.68;;;0.10;;
24305;SDS011;12423;48.768;8.850;2023-04-01T15:12:16;0.10;;;0.10;;
24305;SDS011;12423;48.768;8.850;2023-04-01T15:14:44;0.13;;;0.13;;
24305;SDS011;12423;48.768;8.850;2023-04-01T15:17:02;0.20;;;0.20;;
24305;SDS011;12423;48.768;8.850;2023-04-01T15:19:24;0.20;;;0.10;;
24305;SDS011;12423;48.768;8.850;2023-04-01T15:24:20;0.20;;;0.10;;
24305;SDS011;12423;48.768;8.850;2023-04-01T15:26:28;0.40;;;0.20;;
24305;SDS011;12423;48.768;8.850;2023-04-01T15:31:43;0.10;;;0.10;;
24305;SDS011;12423;48.768;8.850;2023-04-01T15:38:45;0.20;;;0.10;;
24305;SDS011;12423;48.768;8.850;2023-04-01T15:41:11;0.25;;;0.20;;
24305;SDS011;12423;48.768;8.850;2023-04-01T16:00:41;0.15;;;0.15;;
24305;SDS011;12423;48.768;8.850;2023-04-01T16:03:09;0.68;;;0.30;;
24305;SDS011;12423;48.768;8.850;2023-04-01T16:05:37;0.22;;;0.20;;
24305;SDS011;12423;48.768;8.850;2023-04-01T16:12:31;0.52;;;0.30;;
24305;SDS011;12423;48.768;8.850;2023-04-01T16:22:14;0.40;;;0.20;;
24305;SDS011;12423;48.768;8.850;2023-04-01T16:24:24;1.25;;;0.45;;
24305;SDS011;12423;48.768;8.850;2023-04-01T16:26:44;1.45;;;0.20;;
24305;SDS011;12423;48.768;8.850;2023-04-01T16:31:04;0.73;;;0.40;;
24305;SDS011;12423;48.768;8.850;2023-04-01T16:37:33;0.43;;;0.20;;
24305;SDS011;12423;48.768;8.850;2023-04-01T16:39:50;0.52;;;0.30;;
24305;SDS011;12423;48.768;8.850;2023-04-01T16:45:36;2.83;;;0.50;;
24305;SDS011;12423;48.768;8.850;2023-04-01T16:47:09;1.75;;;0.77;;
24305;SDS011;12423;48.768;8.850;2023-04-01T16:51:28;0.68;;;0.40;;
24305;SDS011;12423;48.768;8.850;2023-04-01T16:53:43;0.50;;;0.30;;
24305;SDS011;12423;48.768;8.850;2023-04-01T16:55:57;2.28;;;0.50;;
24305;SDS011;12423;48.768;8.850;2023-04-01T16:58:05;3.88;;;0.85;;
24305;SDS011;12423;48.768;8.850;2023-04-01T17:02:35;1.55;;;0.40;;
24305;SDS011;12423;48.768;8.850;2023-04-01T17:04:54;1.95;;;0.60;;
24305;SDS011;12423;48.768;8.850;2023-04-01T17:12:05;0.93;;;0.40;;
24305;SDS011;12423;48.768;8.850;2023-04-01T17:14:19;2.13;;;0.50;;
24305;SDS011;12423;48.768;8.850;2023-04-01T17:16:46;3.15;;;0.60;;
24305;SDS011;12423;48.768;8.850;2023-04-01T17:21:44;1.17;;;0.50;;
24305;SDS011;12423;48.768;8.850;2023-04-01T17:24:06;1.10;;;0.43;;
24305;SDS011;12423;48.768;8.850;2023-04-01T17:28:54;1.65;;;0.60;;
24305;SDS011;12423;48.768;8.850;2023-04-01T17:31:16;1.40;;;0.60;;
24305;SDS011;12423;48.768;8.850;2023-04-01T17:35:35;2.55;;;0.70;;
24305;SDS011;12423;48.768;8.850;2023-04-01T17:45:24;1.05;;;0.60;;
24305;SDS011;12423;48.768;8.850;2023-04-01T17:47:49;3.28;;;0.70;;
24305;SDS011;12423;48.768;8.850;2023-04-01T17:52:55;2.53;;;1.00;;
24305;SDS011;12423;48.768;8.850;2023-04-01T17:54:42;3.70;;;0.80;;
24305;SDS011;12423;48.768;8.850;2023-04-01T17:57:02;5.80;;;0.70;;
24305;SDS011;12423;48.768;8.850;2023-04-01T17:59:16;1.23;;;0.60;;
24305;SDS011;12423;48.768;8.850;2023-04-01T18:01:49;3.90;;;1.38;;
24305;SDS011;12423;48.768;8.850;2023-04-01T18:06:17;2.22;;;0.50;;
24305;SDS011;12423;48.768;8.850;2023-04-01T18:08:35;2.50;;;0.50;;
24305;SDS011;12423;48.768;8.850;2023-04-01T18:10:57;0.50;;;0.43;;
24305;SDS011;12423;48.768;8.850;2023-04-01T18:15:27;3.53;;;0.40;;
24305;SDS011;12423;48.768;8.850;2023-04-01T18:17:41;0.60;;;0.38;;
24305;SDS011;12423;48.768;8.850;2023-04-01T18:22:02;1.50;;;0.65;;
24305;SDS011;12423;48.768;8.850;2023-04-01T18:26:37;0.75;;;0.30;;
24305;SDS011;12423;48.768;8.850;2023-04-01T18:28:42;1.80;;;0.35;;
24305;SDS011;12423;48.768;8.850;2023-04-01T18:30:51;1.02;;;0.52;;
24305;SDS011;12423;48.768;8.850;2023-04-01T18:33:19;1.15;;;0.50;;
24305;SDS011;12423;48.768;8.850;2023-04-01T18:35:48;1.73;;;0.60;;
24305;SDS011;12423;48.768;8.850;2023-04-01T18:40:17;1.65;;;0.50;;
24305;SDS011;12423;48.768;8.850;2023-04-01T18:44:38;1.33;;;0.80;;
24305;SDS011;12423;48.768;8.850;2023-04-01T18:53:58;1.30;;;0.60;;
24305;SDS011;12423;48.768;8.850;2023-04-01T18:56:08;3.45;;;1.40;;
24305;SDS011;12423;48.768;8.850;2023-04-01T18:58:14;2.92;;;0.80;;
24305;SDS011;12423;48.768;8.850;2023-04-01T19:02:33;2.28;;;0.93;;
24305;SDS011;12423;48.768;8.850;2023-04-01T19:04:43;1.90;;;0.60;;
24305;SDS011;12423;48.768;8.850;2023-04-01T19:06:52;2.58;;;0.63;;
24305;SDS011;12423;48.768;8.850;2023-04-01T19:09:00;6.38;;;0.95;;
24305;SDS011;12423;48.768;8.850;2023-04-01T19:14:14;3.25;;;1.52;;
24305;SDS011;12423;48.768;8.850;2023-04-01T19:25:29;3.38;;;1.40;;
24305;SDS011;12423;48.768;8.850;2023-04-01T19:27:38;4.25;;;1.23;;
24305;SDS011;12423;48.768;8.850;2023-04-01T19:34:57;4.10;;;1.17;;
24305;SDS011;12423;48.768;8.850;2023-04-01T19:36:56;2.72;;;1.35;;
24305;SDS011;12423;48.768;8.850;2023-04-01T19:39:24;2.42;;;0.60;;
24305;SDS011;12423;48.768;8.850;2023-04-01T19:51:13;1.45;;;0.35;;
24305;SDS011;12423;48.768;8.850;2023-04-01T19:53:29;1.50;;;0.63;;
24305;SDS011;12423;48.768;8.850;2023-04-01T19:55:39;2.90;;;0.88;;
24305;SDS011;12423;48.768;8.850;2023-04-01T20:04:09;1.80;;;0.80;;
24305;SDS011;12423;48.768;8.850;2023-04-01T20:06:23;2.25;;;0.88;;
24305;SDS011;12423;48.768;8.850;2023-04-01T20:08:38;1.33;;;0.70;;
24305;SDS011;12423;48.768;8.850;2023-04-01T20:15:35;1.85;;;0.50;;
24305;SDS011;12423;48.768;8.850;2023-04-01T20:17:41;2.55;;;0.73;;
24305;SDS011;12423;48.768;8.850;2023-04-01T20:21:59;2.00;;;0.57;;
24305;SDS011;12423;48.768;8.850;2023-04-01T20:24:07;1.00;;;0.50;;
24305;SDS011;12423;48.768;8.850;2023-04-01T20:26:24;1.42;;;0.68;;
24305;SDS011;12423;48.768;8.850;2023-04-01T20:28:42;1.15;;;0.60;;
24305;SDS011;12423;48.768;8.850;2023-04-01T20:35:57;3.65;;;1.00;;
24305;SDS011;12423;48.768;8.850;2023-04-01T20:38:16;2.78;;;0.90;;
24305;SDS011;12423;48.768;8.850;2023-04-01T20:40:38;1.65;;;0.70;;
24305;SDS011;12423;48.768;8.850;2023-04-01T20:47:30;2.63;;;0.95;;
24305;SDS011;12423;48.768;8.850;2023-04-01T20:50:12;2.38;;;0.85;;
24305;SDS011;12423;48.768;8.850;2023-04-01T20:59:25;3.42;;;1.90;;
24305;SDS011;12423;48.768;8.850;2023-04-01T21:11:08;1.90;;;0.70;;
24305;SDS011;12423;48.768;8.850;2023-04-01T21:15:33;3.67;;;1.05;;